sensor_id;sensor_type;location;lat;lon;timestamp;P1;durP1;ratioP1;P2;durP2;ratioP2
11506;SDS011;5810;51.180;6.646;2023-08-30T00:00:19;2.92;;;2.72;;
11506;SDS011;5810;51.180;6.646;2023-08-30T00:02:48;1.90;;;1.80;;
11506;SDS011;5810;51.180;6.646;2023-08-30T00:05:14;1.30;;;1.20;;
11506;SDS011;5810;51.180;6.646;2023-08-30T00:07:40;2.80;;;1.95;;
11506;SDS011;5810;51.180;6.646;2023-08-30T00:10:06;3.47;;;2.15;;
11506;SDS011;5810;51.180;6.646;2023-08-30T00:12:33;3.42;;;1.48;;
11506;SDS011;5810;51.180;6.646;2023-08-30T00:14:59;2.17;;;2.03;;
11506;SDS011;5810;51.180;6.646;2023-08-30T00:17:25;3.50;;;2.58;;
11506;SDS011;5810;51.180;6.646;2023-08-30T00:19:51;2.47;;;2.22;;
11506;SDS011;5810;51.180;6.646;2023-08-30T00:22:20;2.10;;;1.90;;
11506;SDS011;5810;51.180;6.646;2023-08-30T00:24:47;1.70;;;1.60;;
11506;SDS011;5810;51.180;6.646;2023-08-30T00:27:13;2.38;;;2.17;;
11506;SDS011;5810;51.180;6.646;2023-08-30T00:29:39;2.20;;;2.03;;
11506;SDS011;5810;51.180;6.646;2023-08-30T00:32:05;2.25;;;1.80;;
11506;SDS011;5810;51.180;6.646;2023-08-30T00:34:31;1.95;;;1.45;;
11506;SDS011;5810;51.180;6.646;2023-08-30T00:36:57;1.38;;;1.38;;
11506;SDS011;5810;51.180;6.646;2023-08-30T00:39:23;4.70;;;2.15;;
11506;SDS011;5810;51.180;6.646;2023-08-30T00:41:49;2.38;;;2.13;;
11506;SDS011;5810;51.180;6.646;2023-08-30T00:44:15;1.35;;;1.25;;
11506;SDS011;5810;51.180;6.646;2023-08-30T00:46:41;1.23;;;1.23;;
11506;SDS011;5810;51.180;6.646;2023-08-30T00:49:07;2.35;;;2.15;;
11506;SDS011;5810;51.180;6.646;2023-08-30T00:51:33;1.27;;;1.27;;
11506;SDS011;5810;51.180;6.646;2023-08-30T00:53:59;2.35;;;1.50;;
11506;SDS011;5810;51.180;6.646;2023-08-30T00:56:29;1.80;;;1.70;;
11506;SDS011;5810;51.180;6.646;2023-08-30T00:58:55;1.73;;;1.63;;
11506;SDS011;5810;51.180;6.646;2023-08-30T01:01:21;2.80;;;2.20;;
11506;SDS011;5810;51.180;6.646;2023-08-30T01:03:47;3.13;;;1.95;;
11506;SDS011;5810;51.180;6.646;2023-08-30T01:06:13;1.98;;;1.88;;
11506;SDS011;5810;51.180;6.646;2023-08-30T01:08:42;2.45;;;2.25;;
11506;SDS011;5810;51.180;6.646;2023-08-30T01:13:56;1.30;;;1.25;;
11506;SDS011;5810;51.180;6.646;2023-08-30T01:16:24;3.08;;;1.40;;
11506;SDS011;5810;51.180;6.646;2023-08-30T01:18:50;1.60;;;1.50;;
11506;SDS011;5810;51.180;6.646;2023-08-30T01:21:23;1.40;;;1.30;;
11506;SDS011;5810;51.180;6.646;2023-08-30T01:23:56;2.58;;;1.90;;
11506;SDS011;5810;51.180;6.646;2023-08-30T01:27:25;2.05;;;1.92;;
11506;SDS011;5810;51.180;6.646;2023-08-30T01:29:20;1.77;;;1.67;;
11506;SDS011;5810;51.180;6.646;2023-08-30T01:31:47;5.95;;;2.85;;
11506;SDS011;5810;51.180;6.646;2023-08-30T01:34:14;0.93;;;0.93;;
11506;SDS011;5810;51.180;6.646;2023-08-30T01:36:41;1.73;;;1.63;;
11506;SDS011;5810;51.180;6.646;2023-08-30T01:39:08;1.65;;;1.45;;
11506;SDS011;5810;51.180;6.646;2023-08-30T01:41:35;1.02;;;1.02;;
11506;SDS011;5810;51.180;6.646;2023-08-30T01:44:02;1.17;;;1.08;;
11506;SDS011;5810;51.180;6.646;2023-08-30T01:46:29;3.65;;;1.80;;
11506;SDS011;5810;51.180;6.646;2023-08-30T01:48:56;1.73;;;1.63;;
11506;SDS011;5810;51.180;6.646;2023-08-30T01:51:22;1.70;;;1.30;;
11506;SDS011;5810;51.180;6.646;2023-08-30T01:53:48;2.50;;;1.40;;
11506;SDS011;5810;51.180;6.646;2023-08-30T01:56:15;1.73;;;1.63;;
11506;SDS011;5810;51.180;6.646;2023-08-30T01:58:41;1.67;;;1.58;;
11506;SDS011;5810;51.180;6.646;2023-08-30T02:01:07;1.60;;;1.35;;
11506;SDS011;5810;51.180;6.646;2023-08-30T02:03:33;1.70;;;1.60;;
11506;SDS011;5810;51.180;6.646;2023-08-30T02:06:17;1.20;;;1.15;;
11506;SDS011;5810;51.180;6.646;2023-08-30T02:11:17;3.85;;;1.45;;
11506;SDS011;5810;51.180;6.646;2023-08-30T02:13:45;1.48;;;1.38;;
11506;SDS011;5810;51.180;6.646;2023-08-30T02:16:12;1.58;;;1.48;;
11506;SDS011;5810;51.180;6.646;2023-08-30T02:18:38;1.02;;;1.02;;
11506;SDS011;5810;51.180;6.646;2023-08-30T02:21:05;0.80;;;0.80;;
11506;SDS011;5810;51.180;6.646;2023-08-30T02:23:31;0.98;;;0.98;;
11506;SDS011;5810;51.180;6.646;2023-08-30T02:25:57;1.25;;;1.15;;
11506;SDS011;5810;51.180;6.646;2023-08-30T02:28:23;1.40;;;1.20;;
11506;SDS011;5810;51.180;6.646;2023-08-30T02:30:52;0.80;;;0.80;;
11506;SDS011;5810;51.180;6.646;2023-08-30T02:33:18;1.77;;;1.67;;
11506;SDS011;5810;51.180;6.646;2023-08-30T02:35:44;0.70;;;0.70;;
11506;SDS011;5810;51.180;6.646;2023-08-30T02:38:10;1.38;;;1.30;;
11506;SDS011;5810;51.180;6.646;2023-08-30T02:40:36;0.93;;;0.68;;
11506;SDS011;5810;51.180;6.646;2023-08-30T02:43:02;2.10;;;1.60;;
11506;SDS011;5810;51.180;6.646;2023-08-30T02:45:28;1.00;;;1.00;;
11506;SDS011;5810;51.180;6.646;2023-08-30T02:47:57;0.80;;;0.80;;
11506;SDS011;5810;51.180;6.646;2023-08-30T02:50:23;0.70;;;0.70;;
11506;SDS011;5810;51.180;6.646;2023-08-30T02:52:50;2.85;;;1.35;;
11506;SDS011;5810;51.180;6.646;2023-08-30T02:55:16;1.90;;;1.40;;
11506;SDS011;5810;51.180;6.646;2023-08-30T02:57:42;2.60;;;1.13;;
11506;SDS011;5810;51.180;6.646;2023-08-30T03:00:08;1.00;;;1.00;;
11506;SDS011;5810;51.180;6.646;2023-08-30T03:02:34;0.95;;;0.95;;
11506;SDS011;5810;51.180;6.646;2023-08-30T03:05:00;1.00;;;1.00;;
11506;SDS011;5810;51.180;6.646;2023-08-30T03:07:28;1.20;;;1.10;;
11506;SDS011;5810;51.180;6.646;2023-08-30T03:09:54;1.08;;;1.05;;
11506;SDS011;5810;51.180;6.646;2023-08-30T03:12:20;1.55;;;1.15;;
11506;SDS011;5810;51.180;6.646;2023-08-30T03:14:47;0.93;;;0.93;;
11506;SDS011;5810;51.180;6.646;2023-08-30T03:17:13;0.60;;;0.60;;
11506;SDS011;5810;51.180;6.646;2023-08-30T03:19:39;2.50;;;1.33;;
11506;SDS011;5810;51.180;6.646;2023-08-30T03:22:05;1.20;;;1.15;;
11506;SDS011;5810;51.180;6.646;2023-08-30T03:24:31;0.82;;;0.82;;
11506;SDS011;5810;51.180;6.646;2023-08-30T03:26:57;2.67;;;1.20;;
11506;SDS011;5810;51.180;6.646;2023-08-30T03:29:24;1.17;;;1.08;;
11506;SDS011;5810;51.180;6.646;2023-08-30T03:31:50;0.70;;;0.70;;
11506;SDS011;5810;51.180;6.646;2023-08-30T03:34:16;1.42;;;1.33;;
11506;SDS011;5810;51.180;6.646;2023-08-30T03:36:42;1.33;;;1.23;;
11506;SDS011;5810;51.180;6.646;2023-08-30T03:39:09;1.30;;;1.30;;
11506;SDS011;5810;51.180;6.646;2023-08-30T03:41:35;0.80;;;0.80;;
11506;SDS011;5810;51.180;6.646;2023-08-30T03:44:01;1.17;;;1.17;;
11506;SDS011;5810;51.180;6.646;2023-08-30T03:46:27;1.00;;;1.00;;
11506;SDS011;5810;51.180;6.646;2023-08-30T03:48:53;1.00;;;1.00;;
11506;SDS011;5810;51.180;6.646;2023-08-30T03:51:19;1.50;;;1.08;;
11506;SDS011;5810;51.180;6.646;2023-08-30T03:53:45;1.40;;;1.30;;
11506;SDS011;5810;51.180;6.646;2023-08-30T03:56:11;1.10;;;1.10;;
11506;SDS011;5810;51.180;6.646;2023-08-30T03:58:37;8.18;;;1.48;;
11506;SDS011;5810;51.180;6.646;2023-08-30T04:01:03;1.38;;;1.10;;
11506;SDS011;5810;51.180;6.646;2023-08-30T04:03:31;0.73;;;0.73;;
11506;SDS011;5810;51.180;6.646;2023-08-30T04:05:57;1.30;;;0.73;;
11506;SDS011;5810;51.180;6.646;2023-08-30T04:08:23;1.13;;;1.08;;
11506;SDS011;5810;51.180;6.646;2023-08-30T04:10:51;0.70;;;0.70;;
11506;SDS011;5810;51.180;6.646;2023-08-30T04:13:18;1.00;;;0.80;;
11506;SDS011;5810;51.180;6.646;2023-08-30T04:15:44;0.50;;;0.50;;
11506;SDS011;5810;51.180;6.646;2023-08-30T04:18:10;0.98;;;0.98;;
11506;SDS011;5810;51.180;6.646;2023-08-30T04:20:36;0.77;;;0.77;;
11506;SDS011;5810;51.180;6.646;2023-08-30T04:23:02;1.02;;;0.98;;
11506;SDS011;5810;51.180;6.646;2023-08-30T04:25:28;1.48;;;1.20;;
11506;SDS011;5810;51.180;6.646;2023-08-30T04:27:54;0.70;;;0.70;;
11506;SDS011;5810;51.180;6.646;2023-08-30T04:30:20;1.02;;;1.02;;
11506;SDS011;5810;51.180;6.646;2023-08-30T04:32:46;1.27;;;1.17;;
11506;SDS011;5810;51.180;6.646;2023-08-30T04:35:12;0.98;;;0.90;;
11506;SDS011;5810;51.180;6.646;2023-08-30T04:37:38;13.00;;;1.67;;
11506;SDS011;5810;51.180;6.646;2023-08-30T04:40:06;0.70;;;0.70;;
11506;SDS011;5810;51.180;6.646;2023-08-30T04:42:34;0.80;;;0.80;;
11506;SDS011;5810;51.180;6.646;2023-08-30T04:45:00;5.20;;;1.45;;
11506;SDS011;5810;51.180;6.646;2023-08-30T04:47:27;0.82;;;0.82;;
11506;SDS011;5810;51.180;6.646;2023-08-30T04:49:54;0.70;;;0.70;;
11506;SDS011;5810;51.180;6.646;2023-08-30T04:52:20;1.98;;;1.52;;
11506;SDS011;5810;51.180;6.646;2023-08-30T04:54:46;0.93;;;0.93;;
11506;SDS011;5810;51.180;6.646;2023-08-30T04:57:13;0.88;;;0.88;;
11506;SDS011;5810;51.180;6.646;2023-08-30T04:59:41;0.85;;;0.85;;
11506;SDS011;5810;51.180;6.646;2023-08-30T05:02:07;0.80;;;0.80;;
11506;SDS011;5810;51.180;6.646;2023-08-30T05:04:33;0.98;;;0.98;;
11506;SDS011;5810;51.180;6.646;2023-08-30T05:06:59;0.90;;;0.90;;
11506;SDS011;5810;51.180;6.646;2023-08-30T05:09:25;0.90;;;0.90;;
11506;SDS011;5810;51.180;6.646;2023-08-30T05:11:51;1.80;;;1.33;;
11506;SDS011;5810;51.180;6.646;2023-08-30T05:14:18;5.22;;;1.02;;
11506;SDS011;5810;51.180;6.646;2023-08-30T05:16:44;0.90;;;0.90;;
11506;SDS011;5810;51.180;6.646;2023-08-30T05:19:10;0.90;;;0.85;;
11506;SDS011;5810;51.180;6.646;2023-08-30T05:21:36;1.65;;;1.30;;
11506;SDS011;5810;51.180;6.646;2023-08-30T05:24:02;1.27;;;1.25;;
11506;SDS011;5810;51.180;6.646;2023-08-30T05:26:30;0.68;;;0.68;;
11506;SDS011;5810;51.180;6.646;2023-08-30T05:28:56;0.70;;;0.70;;
11506;SDS011;5810;51.180;6.646;2023-08-30T05:31:22;1.60;;;1.48;;
11506;SDS011;5810;51.180;6.646;2023-08-30T05:33:48;0.65;;;0.65;;
11506;SDS011;5810;51.180;6.646;2023-08-30T05:36:14;1.30;;;1.20;;
11506;SDS011;5810;51.180;6.646;2023-08-30T05:38:40;1.15;;;1.05;;
11506;SDS011;5810;51.180;6.646;2023-08-30T05:41:07;0.75;;;0.75;;
11506;SDS011;5810;51.180;6.646;2023-08-30T05:43:33;1.15;;;1.10;;
11506;SDS011;5810;51.180;6.646;2023-08-30T05:45:59;0.70;;;0.70;;
11506;SDS011;5810;51.180;6.646;2023-08-30T05:48:27;0.80;;;0.80;;
11506;SDS011;5810;51.180;6.646;2023-08-30T05:50:53;0.80;;;0.80;;
11506;SDS011;5810;51.180;6.646;2023-08-30T05:53:19;0.60;;;0.60;;
11506;SDS011;5810;51.180;6.646;2023-08-30T05:55:45;1.17;;;1.17;;
11506;SDS011;5810;51.180;6.646;2023-08-30T05:58:11;0.60;;;0.60;;
11506;SDS011;5810;51.180;6.646;2023-08-30T06:00:39;0.90;;;0.90;;
11506;SDS011;5810;51.180;6.646;2023-08-30T06:03:05;0.63;;;0.63;;
11506;SDS011;5810;51.180;6.646;2023-08-30T06:05:30;1.02;;;1.02;;
11506;SDS011;5810;51.180;6.646;2023-08-30T06:07:56;0.60;;;0.60;;
11506;SDS011;5810;51.180;6.646;2023-08-30T06:10:23;0.98;;;0.98;;
11506;SDS011;5810;51.180;6.646;2023-08-30T06:12:49;1.75;;;1.65;;
11506;SDS011;5810;51.180;6.646;2023-08-30T06:15:15;0.85;;;0.80;;
11506;SDS011;5810;51.180;6.646;2023-08-30T06:17:41;0.90;;;0.90;;
11506;SDS011;5810;51.180;6.646;2023-08-30T06:20:07;0.90;;;0.90;;
11506;SDS011;5810;51.180;6.646;2023-08-30T06:22:33;0.95;;;0.95;;
11506;SDS011;5810;51.180;6.646;2023-08-30T06:24:59;0.77;;;0.77;;
11506;SDS011;5810;51.180;6.646;2023-08-30T06:27:25;0.60;;;0.60;;
11506;SDS011;5810;51.180;6.646;2023-08-30T06:29:51;0.60;;;0.60;;
11506;SDS011;5810;51.180;6.646;2023-08-30T06:32:17;0.50;;;0.50;;
11506;SDS011;5810;51.180;6.646;2023-08-30T06:34:43;1.65;;;1.55;;
11506;SDS011;5810;51.180;6.646;2023-08-30T06:37:09;0.70;;;0.70;;
11506;SDS011;5810;51.180;6.646;2023-08-30T06:39:35;1.25;;;1.20;;
11506;SDS011;5810;51.180;6.646;2023-08-30T06:42:02;1.70;;;1.10;;
11506;SDS011;5810;51.180;6.646;2023-08-30T06:44:28;0.70;;;0.70;;
11506;SDS011;5810;51.180;6.646;2023-08-30T06:46:55;1.05;;;1.05;;
11506;SDS011;5810;51.180;6.646;2023-08-30T06:49:21;0.50;;;0.50;;
11506;SDS011;5810;51.180;6.646;2023-08-30T06:51:47;0.80;;;0.80;;
11506;SDS011;5810;51.180;6.646;2023-08-30T06:54:13;0.55;;;0.55;;
11506;SDS011;5810;51.180;6.646;2023-08-30T06:56:39;0.63;;;0.63;;
11506;SDS011;5810;51.180;6.646;2023-08-30T06:59:05;0.77;;;0.77;;
11506;SDS011;5810;51.180;6.646;2023-08-30T07:01:31;0.50;;;0.50;;
11506;SDS011;5810;51.180;6.646;2023-08-30T07:03:57;0.70;;;0.70;;
11506;SDS011;5810;51.180;6.646;2023-08-30T07:06:23;0.77;;;0.77;;
11506;SDS011;5810;51.180;6.646;2023-08-30T07:08:49;0.65;;;0.65;;
11506;SDS011;5810;51.180;6.646;2023-08-30T07:11:15;1.08;;;0.98;;
11506;SDS011;5810;51.180;6.646;2023-08-30T07:13:41;0.80;;;0.80;;
11506;SDS011;5810;51.180;6.646;2023-08-30T07:16:07;0.55;;;0.55;;
11506;SDS011;5810;51.180;6.646;2023-08-30T07:18:34;0.80;;;0.80;;
11506;SDS011;5810;51.180;6.646;2023-08-30T07:21:00;0.88;;;0.88;;
11506;SDS011;5810;51.180;6.646;2023-08-30T07:23:26;0.60;;;0.60;;
11506;SDS011;5810;51.180;6.646;2023-08-30T07:25:52;0.70;;;0.70;;
11506;SDS011;5810;51.180;6.646;2023-08-30T07:28:18;0.82;;;0.82;;
11506;SDS011;5810;51.180;6.646;2023-08-30T07:30:44;0.75;;;0.75;;
11506;SDS011;5810;51.180;6.646;2023-08-30T07:33:10;1.20;;;1.00;;
11506;SDS011;5810;51.180;6.646;2023-08-30T07:35:36;0.73;;;0.73;;
11506;SDS011;5810;51.180;6.646;2023-08-30T07:38:04;1.02;;;1.02;;
11506;SDS011;5810;51.180;6.646;2023-08-30T07:40:30;1.13;;;1.00;;
11506;SDS011;5810;51.180;6.646;2023-08-30T07:42:56;0.63;;;0.63;;
11506;SDS011;5810;51.180;6.646;2023-08-30T07:45:22;0.82;;;0.82;;
11506;SDS011;5810;51.180;6.646;2023-08-30T07:47:48;1.17;;;1.05;;
11506;SDS011;5810;51.180;6.646;2023-08-30T07:50:15;1.17;;;1.17;;
11506;SDS011;5810;51.180;6.646;2023-08-30T07:52:41;0.68;;;0.68;;
11506;SDS011;5810;51.180;6.646;2023-08-30T07:55:07;0.45;;;0.45;;
11506;SDS011;5810;51.180;6.646;2023-08-30T07:57:34;0.80;;;0.80;;
11506;SDS011;5810;51.180;6.646;2023-08-30T08:00:00;1.02;;;1.02;;
11506;SDS011;5810;51.180;6.646;2023-08-30T08:02:26;0.85;;;0.85;;
11506;SDS011;5810;51.180;6.646;2023-08-30T08:04:52;0.70;;;0.70;;
11506;SDS011;5810;51.180;6.646;2023-08-30T08:07:18;1.02;;;1.02;;
11506;SDS011;5810;51.180;6.646;2023-08-30T08:09:44;0.70;;;0.70;;
11506;SDS011;5810;51.180;6.646;2023-08-30T08:12:10;0.70;;;0.70;;
11506;SDS011;5810;51.180;6.646;2023-08-30T08:14:36;1.48;;;1.38;;
11506;SDS011;5810;51.180;6.646;2023-08-30T08:17:02;0.93;;;0.93;;
11506;SDS011;5810;51.180;6.646;2023-08-30T08:19:28;0.73;;;0.73;;
11506;SDS011;5810;51.180;6.646;2023-08-30T08:21:54;0.77;;;0.77;;
11506;SDS011;5810;51.180;6.646;2023-08-30T08:24:20;0.93;;;0.93;;
11506;SDS011;5810;51.180;6.646;2023-08-30T08:26:46;0.80;;;0.80;;
11506;SDS011;5810;51.180;6.646;2023-08-30T08:29:13;0.75;;;0.75;;
11506;SDS011;5810;51.180;6.646;2023-08-30T08:31:39;0.77;;;0.77;;
11506;SDS011;5810;51.180;6.646;2023-08-30T08:34:11;0.93;;;0.93;;
11506;SDS011;5810;51.180;6.646;2023-08-30T08:36:38;0.82;;;0.82;;
11506;SDS011;5810;51.180;6.646;2023-08-30T08:39:04;1.25;;;1.15;;
11506;SDS011;5810;51.180;6.646;2023-08-30T08:41:40;0.88;;;0.85;;
11506;SDS011;5810;51.180;6.646;2023-08-30T08:44:09;0.80;;;0.80;;
11506;SDS011;5810;51.180;6.646;2023-08-30T08:46:37;0.80;;;0.80;;
11506;SDS011;5810;51.180;6.646;2023-08-30T08:49:15;1.70;;;1.05;;
11506;SDS011;5810;51.180;6.646;2023-08-30T08:51:42;0.93;;;0.93;;
11506;SDS011;5810;51.180;6.646;2023-08-30T08:54:08;1.02;;;1.02;;
11506;SDS011;5810;51.180;6.646;2023-08-30T08:56:35;0.95;;;0.95;;
11506;SDS011;5810;51.180;6.646;2023-08-30T08:59:01;0.80;;;0.80;;
11506;SDS011;5810;51.180;6.646;2023-08-30T09:01:28;0.77;;;0.77;;
11506;SDS011;5810;51.180;6.646;2023-08-30T09:03:54;2.92;;;1.27;;
11506;SDS011;5810;51.180;6.646;2023-08-30T09:06:23;0.70;;;0.70;;
11506;SDS011;5810;51.180;6.646;2023-08-30T09:08:49;0.90;;;0.90;;
11506;SDS011;5810;51.180;6.646;2023-08-30T09:11:15;1.15;;;1.15;;
11506;SDS011;5810;51.180;6.646;2023-08-30T09:13:44;1.35;;;1.25;;
11506;SDS011;5810;51.180;6.646;2023-08-30T09:16:14;0.70;;;0.70;;
11506;SDS011;5810;51.180;6.646;2023-08-30T09:18:43;1.02;;;0.85;;
11506;SDS011;5810;51.180;6.646;2023-08-30T09:21:10;0.77;;;0.77;;
11506;SDS011;5810;51.180;6.646;2023-08-30T09:23:36;3.13;;;1.35;;
11506;SDS011;5810;51.180;6.646;2023-08-30T09:26:02;0.90;;;0.90;;
11506;SDS011;5810;51.180;6.646;2023-08-30T09:28:29;0.90;;;0.90;;
11506;SDS011;5810;51.180;6.646;2023-08-30T09:30:57;0.85;;;0.85;;
11506;SDS011;5810;51.180;6.646;2023-08-30T09:33:29;1.27;;;1.17;;
11506;SDS011;5810;51.180;6.646;2023-08-30T09:35:56;1.77;;;1.10;;
11506;SDS011;5810;51.180;6.646;2023-08-30T09:38:23;1.02;;;1.02;;
11506;SDS011;5810;51.180;6.646;2023-08-30T09:40:50;0.73;;;0.73;;
11506;SDS011;5810;51.180;6.646;2023-08-30T09:43:19;9.88;;;1.08;;
11506;SDS011;5810;51.180;6.646;2023-08-30T09:45:50;1.45;;;1.00;;
11506;SDS011;5810;51.180;6.646;2023-08-30T09:48:20;0.60;;;0.60;;
11506;SDS011;5810;51.180;6.646;2023-08-30T09:50:47;1.27;;;1.02;;
11506;SDS011;5810;51.180;6.646;2023-08-30T09:53:17;1.02;;;1.02;;
11506;SDS011;5810;51.180;6.646;2023-08-30T09:55:43;0.63;;;0.63;;
11506;SDS011;5810;51.180;6.646;2023-08-30T09:58:09;0.82;;;0.82;;
11506;SDS011;5810;51.180;6.646;2023-08-30T10:00:35;1.00;;;1.00;;
11506;SDS011;5810;51.180;6.646;2023-08-30T10:03:01;1.15;;;1.05;;
11506;SDS011;5810;51.180;6.646;2023-08-30T10:05:28;1.27;;;1.20;;
11506;SDS011;5810;51.180;6.646;2023-08-30T10:07:55;1.13;;;0.93;;
11506;SDS011;5810;51.180;6.646;2023-08-30T10:10:22;0.90;;;0.90;;
11506;SDS011;5810;51.180;6.646;2023-08-30T10:12:48;0.70;;;0.70;;
11506;SDS011;5810;51.180;6.646;2023-08-30T10:15:15;0.75;;;0.75;;
11506;SDS011;5810;51.180;6.646;2023-08-30T10:17:41;0.63;;;0.63;;
11506;SDS011;5810;51.180;6.646;2023-08-30T10:20:10;1.20;;;1.17;;
11506;SDS011;5810;51.180;6.646;2023-08-30T10:22:39;1.27;;;1.05;;
11506;SDS011;5810;51.180;6.646;2023-08-30T10:25:07;0.82;;;0.80;;
11506;SDS011;5810;51.180;6.646;2023-08-30T10:27:35;0.60;;;0.60;;
11506;SDS011;5810;51.180;6.646;2023-08-30T10:30:03;0.50;;;0.50;;
11506;SDS011;5810;51.180;6.646;2023-08-30T10:32:30;1.90;;;0.90;;
11506;SDS011;5810;51.180;6.646;2023-08-30T10:35:00;2.60;;;0.90;;
11506;SDS011;5810;51.180;6.646;2023-08-30T10:37:26;0.98;;;0.93;;
11506;SDS011;5810;51.180;6.646;2023-08-30T10:39:52;2.13;;;1.13;;
11506;SDS011;5810;51.180;6.646;2023-08-30T10:42:21;0.55;;;0.55;;
11506;SDS011;5810;51.180;6.646;2023-08-30T10:47:23;1.13;;;1.02;;
11506;SDS011;5810;51.180;6.646;2023-08-30T10:49:53;1.00;;;0.98;;
11506;SDS011;5810;51.180;6.646;2023-08-30T10:52:20;0.60;;;0.60;;
11506;SDS011;5810;51.180;6.646;2023-08-30T10:54:46;7.10;;;1.35;;
11506;SDS011;5810;51.180;6.646;2023-08-30T10:57:18;1.02;;;0.90;;
11506;SDS011;5810;51.180;6.646;2023-08-30T11:00:03;0.70;;;0.70;;
11506;SDS011;5810;51.180;6.646;2023-08-30T11:02:29;5.57;;;0.65;;
11506;SDS011;5810;51.180;6.646;2023-08-30T11:04:57;0.60;;;0.60;;
11506;SDS011;5810;51.180;6.646;2023-08-30T11:07:24;1.08;;;0.95;;
11506;SDS011;5810;51.180;6.646;2023-08-30T11:09:51;0.80;;;0.80;;
11506;SDS011;5810;51.180;6.646;2023-08-30T11:12:17;2.40;;;0.80;;
11506;SDS011;5810;51.180;6.646;2023-08-30T11:14:47;0.70;;;0.70;;
11506;SDS011;5810;51.180;6.646;2023-08-30T11:17:13;0.85;;;0.70;;
11506;SDS011;5810;51.180;6.646;2023-08-30T11:19:39;0.73;;;0.73;;
11506;SDS011;5810;51.180;6.646;2023-08-30T11:22:05;0.63;;;0.63;;
11506;SDS011;5810;51.180;6.646;2023-08-30T11:24:31;0.70;;;0.70;;
11506;SDS011;5810;51.180;6.646;2023-08-30T11:26:59;3.30;;;0.68;;
11506;SDS011;5810;51.180;6.646;2023-08-30T11:29:26;0.50;;;0.50;;
11506;SDS011;5810;51.180;6.646;2023-08-30T11:31:52;0.90;;;0.90;;
11506;SDS011;5810;51.180;6.646;2023-08-30T11:34:21;0.90;;;0.70;;
11506;SDS011;5810;51.180;6.646;2023-08-30T11:36:47;0.60;;;0.60;;
11506;SDS011;5810;51.180;6.646;2023-08-30T11:39:15;0.73;;;0.73;;
11506;SDS011;5810;51.180;6.646;2023-08-30T11:41:42;1.08;;;1.02;;
11506;SDS011;5810;51.180;6.646;2023-08-30T11:44:08;0.65;;;0.65;;
11506;SDS011;5810;51.180;6.646;2023-08-30T11:46:34;0.52;;;0.52;;
11506;SDS011;5810;51.180;6.646;2023-08-30T11:49:00;0.75;;;0.75;;
11506;SDS011;5810;51.180;6.646;2023-08-30T11:51:27;0.50;;;0.50;;
11506;SDS011;5810;51.180;6.646;2023-08-30T11:53:54;0.55;;;0.55;;
11506;SDS011;5810;51.180;6.646;2023-08-30T11:56:20;0.50;;;0.50;;
11506;SDS011;5810;51.180;6.646;2023-08-30T11:58:46;0.68;;;0.68;;
11506;SDS011;5810;51.180;6.646;2023-08-30T12:01:12;0.50;;;0.50;;
11506;SDS011;5810;51.180;6.646;2023-08-30T12:03:39;0.60;;;0.60;;
11506;SDS011;5810;51.180;6.646;2023-08-30T12:06:11;0.60;;;0.60;;
11506;SDS011;5810;51.180;6.646;2023-08-30T12:08:37;0.70;;;0.70;;
11506;SDS011;5810;51.180;6.646;2023-08-30T12:11:03;0.52;;;0.52;;
11506;SDS011;5810;51.180;6.646;2023-08-30T12:13:31;0.50;;;0.50;;
11506;SDS011;5810;51.180;6.646;2023-08-30T12:15:58;0.73;;;0.73;;
11506;SDS011;5810;51.180;6.646;2023-08-30T12:18:24;0.93;;;0.93;;
11506;SDS011;5810;51.180;6.646;2023-08-30T12:20:53;0.40;;;0.40;;
11506;SDS011;5810;51.180;6.646;2023-08-30T12:23:20;0.50;;;0.50;;
11506;SDS011;5810;51.180;6.646;2023-08-30T12:25:56;0.52;;;0.52;;
11506;SDS011;5810;51.180;6.646;2023-08-30T12:28:22;0.60;;;0.60;;
11506;SDS011;5810;51.180;6.646;2023-08-30T12:30:48;0.60;;;0.60;;
11506;SDS011;5810;51.180;6.646;2023-08-30T12:33:17;0.82;;;0.82;;
11506;SDS011;5810;51.180;6.646;2023-08-30T12:35:44;0.63;;;0.63;;
11506;SDS011;5810;51.180;6.646;2023-08-30T12:38:10;0.68;;;0.68;;
11506;SDS011;5810;51.180;6.646;2023-08-30T12:40:49;0.50;;;0.50;;
11506;SDS011;5810;51.180;6.646;2023-08-30T12:43:15;0.57;;;0.57;;
11506;SDS011;5810;51.180;6.646;2023-08-30T12:45:42;0.60;;;0.60;;
11506;SDS011;5810;51.180;6.646;2023-08-30T12:48:08;0.50;;;0.50;;
11506;SDS011;5810;51.180;6.646;2023-08-30T12:50:35;0.50;;;0.50;;
11506;SDS011;5810;51.180;6.646;2023-08-30T12:53:02;0.60;;;0.60;;
11506;SDS011;5810;51.180;6.646;2023-08-30T12:55:28;0.60;;;0.60;;
11506;SDS011;5810;51.180;6.646;2023-08-30T12:57:54;0.65;;;0.65;;
11506;SDS011;5810;51.180;6.646;2023-08-30T13:00:20;0.60;;;0.60;;
11506;SDS011;5810;51.180;6.646;2023-08-30T13:02:46;0.60;;;0.60;;
11506;SDS011;5810;51.180;6.646;2023-08-30T13:05:12;0.70;;;0.70;;
11506;SDS011;5810;51.180;6.646;2023-08-30T13:07:38;0.90;;;0.75;;
11506;SDS011;5810;51.180;6.646;2023-08-30T13:10:05;0.57;;;0.57;;
11506;SDS011;5810;51.180;6.646;2023-08-30T13:12:31;0.60;;;0.60;;
11506;SDS011;5810;51.180;6.646;2023-08-30T13:14:57;0.80;;;0.80;;
11506;SDS011;5810;51.180;6.646;2023-08-30T13:17:23;0.60;;;0.60;;
11506;SDS011;5810;51.180;6.646;2023-08-30T13:19:49;0.50;;;0.50;;
11506;SDS011;5810;51.180;6.646;2023-08-30T13:22:16;0.50;;;0.50;;
11506;SDS011;5810;51.180;6.646;2023-08-30T13:24:42;0.50;;;0.50;;
11506;SDS011;5810;51.180;6.646;2023-08-30T13:27:08;0.50;;;0.50;;
11506;SDS011;5810;51.180;6.646;2023-08-30T13:29:35;0.70;;;0.70;;
11506;SDS011;5810;51.180;6.646;2023-08-30T13:32:01;0.60;;;0.60;;
11506;SDS011;5810;51.180;6.646;2023-08-30T13:34:28;0.60;;;0.60;;
11506;SDS011;5810;51.180;6.646;2023-08-30T13:36:54;0.63;;;0.63;;
11506;SDS011;5810;51.180;6.646;2023-08-30T13:39:20;0.50;;;0.50;;
11506;SDS011;5810;51.180;6.646;2023-08-30T13:41:46;0.73;;;0.73;;
11506;SDS011;5810;51.180;6.646;2023-08-30T13:44:12;0.60;;;0.60;;
11506;SDS011;5810;51.180;6.646;2023-08-30T13:46:38;0.60;;;0.60;;
11506;SDS011;5810;51.180;6.646;2023-08-30T13:49:04;0.60;;;0.60;;
11506;SDS011;5810;51.180;6.646;2023-08-30T13:51:31;0.75;;;0.75;;
11506;SDS011;5810;51.180;6.646;2023-08-30T13:53:57;0.68;;;0.68;;
11506;SDS011;5810;51.180;6.646;2023-08-30T13:56:23;0.40;;;0.40;;
11506;SDS011;5810;51.180;6.646;2023-08-30T13:58:49;0.50;;;0.50;;
11506;SDS011;5810;51.180;6.646;2023-08-30T14:01:15;1.15;;;1.05;;
11506;SDS011;5810;51.180;6.646;2023-08-30T14:03:42;0.70;;;0.70;;
11506;SDS011;5810;51.180;6.646;2023-08-30T14:06:08;0.68;;;0.68;;
11506;SDS011;5810;51.180;6.646;2023-08-30T14:08:34;0.60;;;0.60;;
11506;SDS011;5810;51.180;6.646;2023-08-30T14:11:00;0.57;;;0.57;;
11506;SDS011;5810;51.180;6.646;2023-08-30T14:13:26;0.50;;;0.50;;
11506;SDS011;5810;51.180;6.646;2023-08-30T14:15:59;0.50;;;0.50;;
11506;SDS011;5810;51.180;6.646;2023-08-30T14:18:25;0.50;;;0.50;;
11506;SDS011;5810;51.180;6.646;2023-08-30T14:20:54;0.60;;;0.60;;
11506;SDS011;5810;51.180;6.646;2023-08-30T14:23:21;0.45;;;0.45;;
11506;SDS011;5810;51.180;6.646;2023-08-30T14:25:54;0.50;;;0.50;;
11506;SDS011;5810;51.180;6.646;2023-08-30T14:28:20;0.95;;;0.90;;
11506;SDS011;5810;51.180;6.646;2023-08-30T14:30:46;0.60;;;0.60;;
11506;SDS011;5810;51.180;6.646;2023-08-30T14:33:12;0.60;;;0.60;;
11506;SDS011;5810;51.180;6.646;2023-08-30T14:35:42;0.50;;;0.50;;
11506;SDS011;5810;51.180;6.646;2023-08-30T14:38:08;0.60;;;0.60;;
11506;SDS011;5810;51.180;6.646;2023-08-30T14:40:34;0.63;;;0.63;;
11506;SDS011;5810;51.180;6.646;2023-08-30T14:43:01;0.70;;;0.70;;
11506;SDS011;5810;51.180;6.646;2023-08-30T14:45:27;0.60;;;0.60;;
11506;SDS011;5810;51.180;6.646;2023-08-30T14:47:53;0.70;;;0.70;;
11506;SDS011;5810;51.180;6.646;2023-08-30T14:50:19;0.60;;;0.60;;
11506;SDS011;5810;51.180;6.646;2023-08-30T14:52:45;0.60;;;0.60;;
11506;SDS011;5810;51.180;6.646;2023-08-30T14:55:11;0.57;;;0.57;;
11506;SDS011;5810;51.180;6.646;2023-08-30T14:57:37;1.08;;;1.08;;
11506;SDS011;5810;51.180;6.646;2023-08-30T15:00:04;0.70;;;0.70;;
11506;SDS011;5810;51.180;6.646;2023-08-30T15:02:30;0.50;;;0.50;;
11506;SDS011;5810;51.180;6.646;2023-08-30T15:04:56;0.70;;;0.70;;